Time;durP1;ratioP1;P1;durP2;ratioP2;P2;SDS_P1;SDS_P2;PMS_P1;PMS_P2;Temp;Humidity;BMP_temperature;BMP_pressure;BME280_temperature;BME280_humidity;BME280_pressure;Samples;Min_cycle;Max_cycle;Signal;HPM_P1;HPM_P2
2022/06/23 00:01:59;;;;;;;3.05;2.80;;;15.30;99.90;;;;;;5078183;28;20049;-74
2022/06/23 00:04:31;;;;;;;3.90;2.90;;;15.20;99.90;;;;;;5086709;28;20119;-74
2022/06/23 00:07:03;;;;;;;3.38;3.08;;;15.20;99.90;;;;;;5054102;28;20525;-76
2022/06/23 00:09:40;;;;;;;5.78;3.20;;;15.10;99.90;;;;;;5067600;28;20044;-73
2022/06/23 00:12:18;;;;;;;5.25;4.07;;;15.10;99.90;;;;;;5070718;28;20055;-73
2022/06/23 00:14:45;;;;;;;3.78;3.50;;;15.00;99.90;;;;;;5087158;28;20094;-75
2022/06/23 00:17:25;;;;;;;4.90;4.07;;;15.00;99.90;;;;;;5088158;28;20119;-76
2022/06/23 00:19:51;;;;;;;3.47;3.17;;;15.70;99.90;;;;;;5081758;28;20536;-77
2022/06/23 00:22:20;;;;;;;4.72;3.25;;;14.90;99.90;;;;;;5068301;28;20032;-76
2022/06/23 00:24:48;;;;;;;3.85;3.40;;;14.90;99.90;;;;;;5053700;28;20143;-74
2022/06/23 00:27:19;;;;;;;5.15;3.45;;;15.50;99.90;;;;;;5067783;28;20123;-75
2022/06/23 00:29:46;;;;;;;4.10;3.78;;;14.90;99.90;;;;;;5052628;28;20063;-76
2022/06/23 00:32:15;;;;;;;4.70;3.63;;;14.90;99.90;;;;;;5055152;28;20079;-72
2022/06/23 00:34:43;;;;;;;4.05;3.72;;;14.80;99.90;;;;;;5071397;28;20034;-73
2022/06/23 00:37:09;;;;;;;3.80;3.28;;;14.70;99.90;;;;;;5071026;28;20054;-74
2022/06/23 00:39:40;;;;;;;7.43;3.88;;;14.80;99.90;;;;;;5071617;28;20044;-75
2022/06/23 00:42:24;;;;;;;5.95;3.40;;;14.80;99.90;;;;;;5071781;28;20044;-75
2022/06/23 00:44:59;;;;;;;3.90;3.60;;;14.80;99.90;;;;;;5088380;28;20078;-73
2022/06/23 00:47:48;;;;;;;5.63;3.85;;;14.80;99.90;;;;;;5054682;28;20052;-74
2022/06/23 00:50:29;;;;;;;4.20;3.65;;;14.80;99.90;;;;;;5065755;28;20047;-73
2022/06/23 00:53:00;;;;;;;4.57;4.13;;;14.70;99.90;;;;;;5068442;28;20056;-73
2022/06/23 00:55:35;;;;;;;5.07;4.10;;;14.70;99.90;;;;;;5089661;28;20036;-74
2022/06/23 00:58:17;;;;;;;4.25;3.95;;;14.60;99.90;;;;;;5052843;28;20531;-74
2022/06/23 01:00:43;;;;;;;4.55;4.13;;;14.70;99.90;;;;;;5070839;28;20483;-73
2022/06/23 01:03:15;;;;;;;5.20;4.70;;;14.60;99.90;;;;;;5089056;28;20028;-74
2022/06/23 01:05:49;;;;;;;6.00;4.75;;;14.60;99.90;;;;;;5083345;28;20032;-74
2022/06/23 01:08:31;;;;;;;5.43;4.75;;;14.50;99.90;;;;;;5069173;28;20040;-73
2022/06/23 01:11:12;;;;;;;6.00;4.03;;;14.50;99.90;;;;;;5062631;28;20044;-74
2022/06/23 01:13:46;;;;;;;5.13;4.68;;;14.40;99.90;;;;;;5050037;28;20052;-74
2022/06/23 01:16:43;;;;;;;4.47;4.07;;;14.50;99.90;;;;;;5088495;28;20544;-73
2022/06/23 01:19:36;;;;;;;6.63;5.53;;;14.40;99.90;;;;;;5065983;28;20109;-73
2022/06/23 01:22:07;;;;;;;7.07;5.28;;;14.40;99.90;;;;;;5059953;28;20048;-74
2022/06/23 01:24:48;;;;;;;5.63;5.07;;;14.40;99.90;;;;;;5051335;28;20090;-74
2022/06/23 01:27:32;;;;;;;6.78;5.07;;;14.40;99.90;;;;;;5048741;28;20091;-73
2022/06/23 01:30:03;;;;;;;6.53;5.53;;;14.30;99.90;;;;;;5080834;28;20044;-73
2022/06/23 01:32:36;;;;;;;5.45;4.82;;;15.10;99.90;;;;;;5064882;28;20123;-73
2022/06/23 01:35:12;;;;;;;6.57;5.97;;;14.20;99.90;;;;;;5054018;28;20048;-73
2022/06/23 01:38:07;;;;;;;6.80;6.15;;;14.20;99.90;;;;;;5088122;28;20419;-73
2022/06/23 01:40:41;;;;;;;6.03;5.50;;;14.20;99.90;;;;;;5052863;28;20048;-73
2022/06/23 01:43:15;;;;;;;5.45;4.90;;;14.10;99.90;;;;;;5064155;28;20069;-73
2022/06/23 01:46:02;;;;;;;5.50;5.00;;;14.10;99.90;;;;;;5052887;28;20483;-72
2022/06/23 01:48:54;;;;;;;6.60;6.03;;;14.20;99.90;;;;;;5070458;28;20079;-73
2022/06/23 01:51:27;;;;;;;7.57;6.75;;;14.10;99.90;;;;;;5017964;28;20055;-73
2022/06/23 01:53:55;;;;;;;9.93;6.35;;;14.20;99.90;;;;;;5068833;28;20247;-73
2022/06/23 01:56:39;;;;;;;6.78;6.07;;;15.00;99.90;;;;;;5070360;28;20449;-73
2022/06/23 01:59:26;;;;;;;9.80;6.70;;;14.10;99.90;;;;;;5062965;28;20048;-73
2022/06/23 02:02:16;;;;;;;11.90;5.82;;;14.10;99.90;;;;;;5068596;28;20052;-72
2022/06/23 02:05:23;;;;;;;7.55;6.18;;;14.10;99.90;;;;;;5069563;28;20119;-74
2022/06/23 02:07:57;;;;;;;8.32;6.13;;;14.10;99.90;;;;;;5068473;28;20044;-73
2022/06/23 02:10:35;;;;;;;9.07;6.07;;;14.10;99.90;;;;;;5070344;28;20216;-74
2022/06/23 02:13:07;;;;;;;8.70;7.00;;;14.20;99.90;;;;;;5067991;28;20134;-75
2022/06/23 02:16:02;;;;;;;7.25;6.55;;;14.40;99.90;;;;;;5068880;28;20047;-75
2022/06/23 02:18:32;;;;;;;6.70;5.93;;;14.10;99.90;;;;;;5066059;28;20402;-75
2022/06/23 02:20:57;;;;;;;7.10;6.40;;;14.60;99.90;;;;;;5059787;28;20132;-73
2022/06/23 02:23:32;;;;;;;7.72;6.88;;;14.10;99.90;;;;;;5085242;28;20131;-74
2022/06/23 02:26:23;;;;;;;9.82;7.93;;;14.10;99.90;;;;;;5062038;28;20113;-73
2022/06/23 02:29:18;;;;;;;9.43;6.95;;;14.00;99.90;;;;;;5088394;28;20040;-75
2022/06/23 02:32:13;;;;;;;7.50;6.80;;;14.00;99.90;;;;;;5076505;28;20432;-74
2022/06/23 02:34:46;;;;;;;7.63;6.30;;;14.00;99.90;;;;;;5071834;28;20048;-76
2022/06/23 02:37:49;;;;;;;8.23;7.47;;;14.10;99.90;;;;;;5076124;28;20075;-74
2022/06/23 02:40:21;;;;;;;8.52;7.63;;;14.00;99.90;;;;;;5070848;28;20336;-73
2022/06/23 02:42:52;;;;;;;8.55;7.65;;;14.00;99.90;;;;;;5075300;28;20036;-73
2022/06/23 02:45:40;;;;;;;8.93;8.13;;;14.00;99.90;;;;;;5076521;28;20039;-75
2022/06/23 02:48:27;;;;;;;9.98;8.10;;;14.00;99.90;;;;;;5069297;28;20055;-73
2022/06/23 02:50:59;;;;;;;10.00;8.20;;;13.90;99.90;;;;;;5075069;28;20047;-74
2022/06/23 02:53:43;;;;;;;9.68;8.65;;;13.90;99.90;;;;;;5060206;28;20040;-74
2022/06/23 02:56:35;;;;;;;8.73;7.82;;;14.40;99.90;;;;;;5090651;28;20052;-75
2022/06/23 02:59:10;;;;;;;9.05;8.10;;;14.10;99.90;;;;;;5086353;28;20105;-75
2022/06/23 03:01:50;;;;;;;10.57;8.50;;;14.50;99.90;;;;;;5073186;28;20048;-74
2022/06/23 03:04:23;;;;;;;9.75;8.75;;;14.10;99.90;;;;;;5053541;28;20048;-75
2022/06/23 03:07:01;;;;;;;10.43;9.27;;;14.00;99.90;;;;;;5073811;28;20131;-75
2022/06/23 03:09:42;;;;;;;9.68;8.65;;;14.00;99.90;;;;;;5076434;28;20753;-76
2022/06/23 03:12:35;;;;;;;10.68;8.35;;;14.00;99.90;;;;;;5068447;28;20066;-72
2022/06/23 03:15:08;;;;;;;9.00;8.05;;;14.00;99.90;;;;;;5093951;28;20032;-76
2022/06/23 03:17:40;;;;;;;9.65;7.75;;;14.00;99.90;;;;;;5075300;28;20041;-76
2022/06/23 03:20:18;;;;;;;10.85;8.57;;;14.00;99.90;;;;;;5091871;28;20032;-76
2022/06/23 03:22:54;;;;;;;9.88;8.98;;;14.00;99.90;;;;;;5093942;28;20096;-73
2022/06/23 03:25:37;;;;;;;9.27;8.38;;;14.00;99.90;;;;;;5093187;28;20088;-74
2022/06/23 03:28:09;;;;;;;8.73;7.83;;;14.20;99.90;;;;;;5085242;28;20464;-73
2022/06/23 03:30:46;;;;;;;8.77;7.88;;;13.90;99.90;;;;;;5094510;28;20039;-73
2022/06/23 03:33:29;;;;;;;10.68;8.75;;;13.90;99.90;;;;;;5086996;28;20040;-73
2022/06/23 03:35:59;;;;;;;9.18;8.35;;;13.90;99.90;;;;;;5075977;28;20040;-75
2022/06/23 03:42:18;;;;;;;10.05;8.88;;;13.90;99.90;;;;;;5089832;28;20044;-75
2022/06/23 03:45:12;;;;;;;7.63;6.93;;;13.80;99.90;;;;;;5069749;28;20056;-72
2022/06/23 03:47:48;;;;;;;8.68;7.88;;;13.80;99.90;;;;;;5066379;28;20503;-75
2022/06/23 03:50:43;;;;;;;9.68;8.18;;;14.00;99.90;;;;;;5066440;28;20442;-76
2022/06/23 03:53:18;;;;;;;9.60;8.60;;;13.80;99.90;;;;;;5066361;28;20047;-73
2022/06/23 03:55:53;;;;;;;11.75;8.15;;;13.80;99.90;;;;;;5088889;28;20111;-73
2022/06/23 03:58:31;;;;;;;9.43;8.52;;;13.80;99.90;;;;;;5070715;28;20087;-73
2022/06/23 04:01:15;;;;;;;8.75;7.60;;;13.90;99.90;;;;;;5084376;28;20045;-72
2022/06/23 04:03:57;;;;;;;8.98;8.07;;;13.90;99.90;;;;;;5069507;28;20515;-72
2022/06/23 04:06:40;;;;;;;10.57;8.75;;;13.90;99.90;;;;;;5066641;28;20059;-73
2022/06/23 04:09:28;;;;;;;10.38;9.40;;;13.90;99.90;;;;;;5050823;28;20040;-76
2022/06/23 04:12:00;;;;;;;9.73;8.70;;;13.90;99.90;;;;;;5088531;28;20052;-73
2022/06/23 04:14:40;;;;;;;9.73;8.82;;;14.20;99.90;;;;;;5069925;28;20040;-74
2022/06/23 04:17:28;;;;;;;9.05;8.15;;;13.90;99.90;;;;;;5069367;28;20040;-77
2022/06/23 04:20:00;;;;;;;11.98;8.98;;;14.00;99.90;;;;;;5071155;28;20055;-77
2022/06/23 04:22:53;;;;;;;9.60;8.40;;;14.00;99.90;;;;;;5052998;28;20483;-76
2022/06/23 04:25:31;;;;;;;13.65;8.80;;;14.00;99.90;;;;;;5068138;28;20065;-74
2022/06/23 04:28:00;;;;;;;10.13;8.73;;;14.30;99.90;;;;;;5067806;28;20048;-73
2022/06/23 04:30:26;;;;;;;11.68;9.15;;;14.30;99.90;;;;;;5090272;28;20040;-73
2022/06/23 04:32:54;;;;;;;11.45;8.90;;;14.70;99.90;;;;;;5071895;28;20043;-76
2022/06/23 04:35:39;;;;;;;9.88;8.88;;;13.90;99.90;;;;;;5071325;28;20079;-73
2022/06/23 04:38:13;;;;;;;10.40;9.40;;;13.90;99.90;;;;;;5089306;28;20039;-73
2022/06/23 04:40:42;;;;;;;10.27;9.27;;;13.90;99.90;;;;;;5054942;28;20040;-75
2022/06/23 04:43:26;;;;;;;10.10;8.95;;;14.90;99.90;;;;;;5087844;28;20043;-77
2022/06/23 04:45:57;;;;;;;11.20;10.10;;;14.40;99.90;;;;;;5070964;28;20479;-72
2022/06/23 04:48:38;;;;;;;10.50;9.23;;;14.70;99.90;;;;;;5069369;28;20154;-75
2022/06/23 04:51:19;;;;;;;11.25;9.85;;;14.00;99.90;;;;;;5070241;28;20495;-74
2022/06/23 04:54:13;;;;;;;12.00;9.70;;;14.00;99.90;;;;;;5086304;28;20050;-76
2022/06/23 04:56:47;;;;;;;14.60;11.07;;;14.00;99.90;;;;;;5050248;28;20119;-75
2022/06/23 04:59:19;;;;;;;13.43;10.45;;;14.00;99.90;;;;;;5084084;28;20040;-74
2022/06/23 05:01:48;;;;;;;11.90;10.50;;;14.00;99.90;;;;;;5089465;28;20046;-73
2022/06/23 05:04:30;;;;;;;9.73;8.57;;;14.00;99.90;;;;;;5063205;28;20059;-75
2022/06/23 05:06:59;;;;;;;11.02;9.50;;;14.00;99.90;;;;;;5070873;28;20061;-74
2022/06/23 05:09:33;;;;;;;10.30;9.30;;;14.10;99.90;;;;;;5085316;28;20040;-76
2022/06/23 05:12:21;;;;;;;11.45;10.27;;;14.60;99.90;;;;;;5070655;28;20396;-76
2022/06/23 05:15:00;;;;;;;10.05;8.65;;;14.10;99.90;;;;;;5084429;28;20047;-76
2022/06/23 05:17:31;;;;;;;10.48;9.38;;;14.20;99.90;;;;;;5059667;28;20051;-74
2022/06/23 05:20:02;;;;;;;10.70;9.27;;;14.20;99.90;;;;;;5086574;28;20058;-75
2022/06/23 05:22:36;;;;;;;11.02;8.95;;;14.30;99.90;;;;;;5084282;28;20111;-74
2022/06/23 05:25:27;;;;;;;12.10;9.80;;;15.20;99.90;;;;;;5068494;28;20121;-76
2022/06/23 05:27:53;;;;;;;11.20;10.02;;;15.40;99.90;;;;;;5069679;28;20551;-76
2022/06/23 05:30:27;;;;;;;13.32;9.82;;;14.40;99.90;;;;;;5050690;28;20060;-76
2022/06/23 05:33:12;;;;;;;11.23;9.77;;;14.50;99.90;;;;;;5100975;28;20079;-76
2022/06/23 05:35:42;;;;;;;12.25;10.88;;;14.50;99.90;;;;;;5045876;28;20151;-76
2022/06/23 05:38:20;;;;;;;11.20;10.07;;;14.50;99.90;;;;;;5053283;28;20044;-74
2022/06/23 05:40:56;;;;;;;12.23;9.48;;;14.60;99.90;;;;;;5070593;28;20043;-76
2022/06/23 05:43:23;;;;;;;10.52;9.43;;;14.70;99.90;;;;;;5081604;28;20070;-76
2022/06/23 05:45:53;;;;;;;11.85;9.90;;;14.70;99.90;;;;;;5087349;28;20040;-76
2022/06/23 05:48:35;;;;;;;10.73;8.88;;;14.90;99.90;;;;;;5080817;28;20102;-74
2022/06/23 05:51:10;;;;;;;14.70;10.10;;;14.90;99.90;;;;;;5070747;28;20051;-76
2022/06/23 05:53:41;;;;;;;11.13;9.60;;;15.00;99.90;;;;;;5088252;28;20081;-73
2022/06/23 05:56:30;;;;;;;10.07;9.18;;;15.00;99.90;;;;;;5070617;28;20449;-74
2022/06/23 05:59:00;;;;;;;11.88;10.18;;;15.10;99.90;;;;;;5087936;28;20074;-74
2022/06/23 06:01:34;;;;;;;11.70;10.68;;;15.10;99.90;;;;;;5069312;28;20036;-74
2022/06/23 06:04:34;;;;;;;11.93;10.73;;;15.20;99.90;;;;;;5087399;28;20136;-73
2022/06/23 06:07:00;;;;;;;14.30;10.13;;;15.30;99.90;;;;;;5082387;28;20146;-73
2022/06/23 06:09:37;;;;;;;12.48;10.07;;;15.80;99.90;;;;;;5084652;28;20063;-74
2022/06/23 06:12:10;;;;;;;11.10;9.95;;;15.50;99.90;;;;;;5084339;28;20043;-75
2022/06/23 06:14:42;;;;;;;10.55;9.55;;;15.50;99.90;;;;;;5069193;28;20043;-73
2022/06/23 06:17:17;;;;;;;9.80;8.65;;;15.60;99.90;;;;;;5048287;28;20131;-73
2022/06/23 06:19:43;;;;;;;12.25;9.35;;;15.70;99.90;;;;;;5068979;28;20051;-73
2022/06/23 06:22:42;;;;;;;10.43;9.32;;;15.70;99.90;;;;;;5082643;28;20048;-75
2022/06/23 06:25:24;;;;;;;13.82;9.38;;;15.80;99.90;;;;;;5086124;28;20078;-77
2022/06/23 06:27:52;;;;;;;10.55;8.88;;;15.90;99.90;;;;;;5072984;28;20035;-80
2022/06/23 06:30:23;;;;;;;9.95;8.95;;;16.30;99.90;;;;;;5045183;28;20052;-75
2022/06/23 06:32:48;;;;;;;10.80;8.20;;;16.10;99.90;;;;;;5062079;28;20041;-78
2022/06/23 06:35:18;;;;;;;9.65;8.38;;;16.10;99.90;;;;;;5086892;28;20036;-81
2022/06/23 06:37:51;;;;;;;14.25;8.38;;;16.70;99.90;;;;;;5084425;28;20044;-77
2022/06/23 06:40:17;;;;;;;13.73;8.00;;;16.90;99.90;;;;;;5070573;28;20032;-78
2022/06/23 06:42:47;;;;;;;10.80;8.15;;;16.40;99.90;;;;;;5090103;28;20141;-76
2022/06/23 06:45:16;;;;;;;14.70;8.57;;;16.90;99.90;;;;;;5095817;28;20040;-78
2022/06/23 06:47:44;;;;;;;10.30;7.38;;;17.40;99.90;;;;;;5053218;28;20125;-78
2022/06/23 06:50:19;;;;;;;11.20;7.53;;;16.70;99.90;;;;;;5071739;28;20044;-80
2022/06/23 06:52:49;;;;;;;9.23;8.00;;;16.80;99.90;;;;;;5083564;28;20039;-77
2022/06/23 06:55:32;;;;;;;10.95;7.55;;;16.90;99.90;;;;;;5092223;28;20040;-79
2022/06/23 06:58:14;;;;;;;9.02;8.10;;;16.90;99.90;;;;;;5071637;28;20038;-79
2022/06/23 07:00:50;;;;;;;8.32;7.40;;;17.40;99.90;;;;;;5085485;28;20101;-79
2022/06/23 07:03:21;;;;;;;8.93;7.68;;;17.10;99.90;;;;;;5047982;28;20035;-80
2022/06/23 07:06:04;;;;;;;9.40;6.95;;;17.20;99.90;;;;;;5072092;28;20398;-77
2022/06/23 07:08:39;;;;;;;7.03;6.22;;;17.20;99.90;;;;;;5058987;28;20069;-79
2022/06/23 07:11:37;;;;;;;9.60;8.02;;;17.30;99.90;;;;;;5071990;28;20500;-79
2022/06/23 07:14:11;;;;;;;11.50;7.82;;;17.40;99.90;;;;;;5057568;28;20076;-75
2022/06/23 07:16:58;;;;;;;11.70;7.85;;;17.60;99.90;;;;;;5070167;28;20035;-78
2022/06/23 07:19:46;;;;;;;8.98;7.40;;;17.60;99.90;;;;;;5092037;28;20515;-78
2022/06/23 07:22:19;;;;;;;9.70;7.32;;;18.00;99.90;;;;;;5096937;28;20050;-78
2022/06/23 07:25:04;;;;;;;9.48;8.02;;;17.70;99.90;;;;;;5077648;28;20059;-77
2022/06/23 07:27:42;;;;;;;8.57;6.40;;;17.80;99.90;;;;;;5064531;28;20036;-81
2022/06/23 07:30:16;;;;;;;9.07;7.10;;;17.70;99.90;;;;;;5054286;28;20483;-79
2022/06/23 07:33:00;;;;;;;10.30;7.20;;;17.80;99.90;;;;;;5089509;28;20032;-79
2022/06/23 07:35:32;;;;;;;;;;;17.90;99.90;;;;;;5073511;28;20044;-79
2022/06/23 07:37:58;;;;;;;10.40;9.15;;;18.00;99.90;;;;;;5067322;28;19967;-81
2022/06/23 07:40:28;;;;;;;11.70;10.40;;;18.00;99.90;;;;;;5072459;28;20510;-79
2022/06/23 07:43:11;;;;;;;8.73;7.03;;;18.40;99.90;;;;;;5057175;28;20062;-77
2022/06/23 07:45:52;;;;;;;6.88;6.28;;;18.30;99.90;;;;;;5065912;28;20043;-78
2022/06/23 07:48:17;;;;;;;10.95;7.15;;;18.40;99.90;;;;;;5073245;28;20185;-79
2022/06/23 07:50:43;;;;;;;9.18;6.93;;;18.50;99.90;;;;;;5071326;28;20523;-81
2022/06/23 07:53:24;;;;;;;7.80;7.10;;;18.50;99.90;;;;;;5069515;28;20051;-79
2022/06/23 07:55:50;;;;;;;8.23;7.03;;;18.60;99.90;;;;;;5055077;28;20483;-79
2022/06/23 07:58:22;;;;;;;7.88;6.45;;;18.80;99.90;;;;;;5052270;28;20487;-82
2022/06/23 08:00:55;;;;;;;10.25;6.40;;;18.60;99.90;;;;;;5086464;28;20154;-79
2022/06/23 08:03:34;;;;;;;7.10;6.40;;;18.70;99.90;;;;;;5067946;28;20048;-81
2022/06/23 08:06:06;;;;;;;12.90;7.53;;;18.90;99.90;;;;;;5087025;28;20036;-80
2022/06/23 08:08:34;;;;;;;10.35;6.10;;;19.00;99.90;;;;;;5052494;28;20044;-78
2022/06/23 08:13:57;;;;;;;10.63;8.52;;;19.20;99.90;;;;;;5084533;28;20048;-81
2022/06/23 08:19:16;;;;;;;7.40;5.47;;;19.30;99.90;;;;;;5069206;28;20055;-82
2022/06/23 08:21:51;;;;;;;7.68;5.47;;;20.20;99.90;;;;;;5071468;28;20390;-80
2022/06/23 08:24:23;;;;;;;7.18;5.80;;;19.50;99.90;;;;;;5055603;28;20056;-76
2022/06/23 08:26:55;;;;;;;5.78;5.05;;;19.60;99.90;;;;;;5070224;28;20104;-75
2022/06/23 08:29:30;;;;;;;7.78;5.03;;;20.30;99.90;;;;;;5089644;28;20144;-74
2022/06/23 08:31:58;;;;;;;7.80;5.90;;;20.00;99.90;;;;;;5054922;28;20098;-75
2022/06/23 08:34:24;;;;;;;6.00;4.85;;;19.90;99.90;;;;;;5049512;28;20040;-75
2022/06/23 08:36:53;;;;;;;6.78;5.53;;;20.80;99.90;;;;;;5071226;28;20067;-75
2022/06/23 08:39:36;;;;;;;13.27;5.68;;;20.00;99.90;;;;;;5087771;28;20524;-75
2022/06/23 08:42:29;;;;;;;7.13;5.60;;;20.10;99.90;;;;;;5054186;28;20135;-76
2022/06/23 08:45:21;;;;;;;5.95;5.28;;;20.30;99.90;;;;;;5062389;28;20565;-74
2022/06/23 08:48:02;;;;;;;8.02;4.90;;;20.40;99.90;;;;;;5070560;28;20051;-75
2022/06/23 08:50:42;;;;;;;8.43;5.30;;;20.60;99.90;;;;;;5054075;28;20032;-79
2022/06/23 08:53:24;;;;;;;7.72;5.60;;;20.70;99.90;;;;;;5055180;28;20102;-76
2022/06/23 08:56:11;;;;;;;7.07;4.78;;;20.90;99.90;;;;;;5082275;28;20039;-76
2022/06/23 08:58:52;;;;;;;6.82;4.50;;;20.90;99.90;;;;;;5070997;28;20066;-75
2022/06/23 09:01:24;;;;;;;7.10;4.88;;;21.10;99.90;;;;;;5089563;28;20054;-77
2022/06/23 09:04:08;;;;;;;6.55;4.10;;;21.10;99.90;;;;;;5087363;28;20072;-77
2022/06/23 09:07:00;;;;;;;7.30;4.10;;;21.50;99.90;;;;;;5054250;28;20192;-80
2022/06/23 09:09:46;;;;;;;7.57;4.95;;;21.40;99.90;;;;;;5050916;28;20052;-75
2022/06/23 09:12:41;;;;;;;6.95;4.38;;;21.40;99.90;;;;;;5071262;28;20043;-74
2022/06/23 09:15:35;;;;;;;8.02;3.83;;;21.60;99.90;;;;;;5088066;28;20063;-75
2022/06/23 09:18:32;;;;;;;6.50;3.80;;;21.60;99.90;;;;;;5067306;28;20055;-75
2022/06/23 09:21:06;;;;;;;6.82;4.72;;;21.80;99.90;;;;;;5064075;28;20051;-76
2022/06/23 09:24:04;;;;;;;4.35;3.92;;;21.90;99.90;;;;;;5053316;28;20055;-76
2022/06/23 09:26:39;;;;;;;7.78;4.15;;;21.80;99.90;;;;;;5085533;28;20044;-75
2022/06/23 09:29:08;;;;;;;8.30;4.57;;;21.90;99.90;;;;;;5050292;28;20036;-76
2022/06/23 09:31:58;;;;;;;7.75;3.20;;;22.00;99.90;;;;;;5070025;28;20503;-76
2022/06/23 09:34:49;;;;;;;7.22;3.35;;;22.20;99.90;;;;;;5088960;28;20568;-75
2022/06/23 09:37:40;;;;;;;8.13;3.53;;;22.30;99.90;;;;;;5087491;28;20083;-76
2022/06/23 09:40:37;;;;;;;9.73;3.50;;;22.40;99.90;;;;;;5053777;28;20044;-75
2022/06/23 09:43:27;;;;;;;6.18;3.65;;;22.50;99.90;;;;;;5067218;28;20126;-76
2022/06/23 09:46:17;;;;;;;5.50;3.38;;;22.70;99.90;;;;;;5083543;28;20391;-75
2022/06/23 09:49:08;;;;;;;7.70;3.60;;;22.90;99.90;;;;;;5053463;28;20063;-75
2022/06/23 09:51:57;;;;;;;6.43;3.40;;;23.00;99.90;;;;;;5067733;28;20075;-75
2022/06/23 09:54:56;;;;;;;6.13;4.18;;;23.10;99.90;;;;;;5052240;28;20039;-76
2022/06/23 09:57:50;;;;;;;8.90;3.35;;;23.20;99.90;;;;;;5069208;28;20249;-78
2022/06/23 10:00:39;;;;;;;6.95;3.22;;;23.20;99.90;;;;;;5066049;28;20084;-77
2022/06/23 10:03:38;;;;;;;5.72;2.80;;;23.30;99.90;;;;;;5062834;28;20062;-77
2022/06/23 10:06:31;;;;;;;5.20;3.17;;;23.50;99.90;;;;;;5067618;28;20052;-76
2022/06/23 10:09:06;;;;;;;6.50;3.45;;;23.60;99.90;;;;;;5066865;28;20044;-76
2022/06/23 10:11:50;;;;;;;13.52;2.97;;;23.60;99.90;;;;;;5068970;28;20407;-76
2022/06/23 10:14:18;;;;;;;3.75;2.53;;;23.70;99.90;;;;;;5065434;28;20127;-76
2022/06/23 10:17:19;;;;;;;3.92;2.70;;;23.80;99.90;;;;;;5052563;28;20511;-77
2022/06/23 10:20:06;;;;;;;4.63;2.50;;;23.90;99.90;;;;;;5077522;28;20517;-76
2022/06/23 10:22:44;;;;;;;5.45;2.38;;;24.10;99.90;;;;;;5045288;28;20047;-76
2022/06/23 10:25:24;;;;;;;6.35;2.15;;;24.20;99.90;;;;;;5084764;28;20087;-75
2022/06/23 10:27:49;;;;;;;5.28;1.90;;;24.30;99.90;;;;;;5086524;28;20032;-74
2022/06/23 10:30:37;;;;;;;4.20;2.33;;;24.30;99.90;;;;;;5065591;28;20102;-73
2022/06/23 10:33:21;;;;;;;3.67;2.28;;;24.50;99.90;;;;;;5081123;28;20040;-74
2022/06/23 10:36:07;;;;;;;6.43;2.13;;;24.60;99.90;;;;;;5063291;28;20048;-73
2022/06/23 10:38:48;;;;;;;3.95;2.00;;;24.70;99.90;;;;;;5065084;28;20426;-74
2022/06/23 10:41:37;;;;;;;4.63;2.63;;;24.70;99.90;;;;;;5053202;28;20044;-73
2022/06/23 10:44:23;;;;;;;10.85;1.80;;;24.90;99.90;;;;;;5067641;28;20130;-73
2022/06/23 10:47:09;;;;;;;4.20;2.13;;;25.00;99.90;;;;;;5067785;28;20101;-72
2022/06/23 10:49:58;;;;;;;4.00;1.63;;;25.20;99.90;;;;;;5084066;28;20040;-72
2022/06/23 10:52:50;;;;;;;5.53;1.80;;;25.30;99.90;;;;;;5068443;28;20044;-72
2022/06/23 10:55:30;;;;;;;4.43;1.45;;;25.30;99.90;;;;;;5071642;28;20040;-72
2022/06/23 10:58:33;;;;;;;6.10;1.67;;;25.40;99.90;;;;;;5050507;28;20442;-72
2022/06/23 11:01:07;;;;;;;9.25;1.80;;;25.50;99.80;;;;;;5070511;28;20040;-72
2022/06/23 11:03:57;;;;;;;6.68;1.83;;;25.80;99.60;;;;;;5091772;28;20169;-72
2022/06/23 11:06:41;;;;;;;6.38;1.65;;;25.70;99.80;;;;;;5086280;28;20040;-72
2022/06/23 11:09:19;;;;;;;3.85;1.50;;;25.80;99.90;;;;;;5072624;28;20040;-74
2022/06/23 11:12:03;;;;;;;7.93;1.77;;;25.80;99.80;;;;;;5055031;28;20430;-73
2022/06/23 11:14:43;;;;;;;12.88;2.50;;;25.90;99.80;;;;;;5055393;28;20075;-74
2022/06/23 11:17:37;;;;;;;4.72;1.73;;;26.00;99.50;;;;;;5072359;28;20513;-72
2022/06/23 11:20:43;;;;;;;3.88;1.77;;;26.20;99.00;;;;;;5066375;28;20051;-71
2022/06/23 11:23:13;;;;;;;3.33;1.77;;;26.30;98.30;;;;;;5065828;28;20101;-73
2022/06/23 11:26:10;;;;;;;7.05;1.63;;;26.30;98.80;;;;;;5072804;28;20040;-72
2022/06/23 11:29:02;;;;;;;3.00;1.67;;;26.40;98.70;;;;;;5084882;28;20039;-73
2022/06/23 11:31:49;;;;;;;12.60;2.25;;;26.60;98.80;;;;;;5087190;28;20391;-72
2022/06/23 11:34:45;;;;;;;2.63;1.75;;;26.80;96.90;;;;;;5068406;28;20036;-72
2022/06/23 11:37:20;;;;;;;7.53;2.30;;;26.90;97.00;;;;;;5069640;28;20040;-72
2022/06/23 11:39:58;;;;;;;6.30;1.63;;;26.90;97.20;;;;;;5087367;28;20113;-72
2022/06/23 11:42:54;;;;;;;8.25;1.70;;;27.10;96.90;;;;;;5085049;28;20131;-72
2022/06/23 11:45:34;;;;;;;9.55;1.92;;;27.20;96.10;;;;;;5088028;28;20048;-71
2022/06/23 11:48:16;;;;;;;5.13;1.48;;;27.30;96.30;;;;;;5053317;28;20414;-73
2022/06/23 11:51:01;;;;;;;9.25;2.00;;;27.30;96.20;;;;;;5069707;28;20441;-76
2022/06/23 11:54:02;;;;;;;4.40;1.70;;;27.50;95.40;;;;;;5088518;28;20171;-76
2022/06/23 11:56:36;;;;;;;2.50;1.30;;;27.60;95.10;;;;;;4976795;28;20050;-76
2022/06/23 11:59:17;;;;;;;6.32;1.80;;;27.70;95.40;;;;;;5090941;28;20040;-76
2022/06/23 12:01:46;;;;;;;3.10;1.30;;;27.90;94.00;;;;;;5054518;28;20032;-76
2022/06/23 12:04:50;;;;;;;4.25;1.63;;;28.00;94.30;;;;;;5055989;28;20036;-76
2022/06/23 12:07:34;;;;;;;5.40;1.60;;;28.30;94.70;;;;;;5071202;28;20056;-77
2022/06/23 12:10:26;;;;;;;6.25;1.40;;;28.50;94.10;;;;;;5073270;28;20044;-76
2022/06/23 12:13:06;;;;;;;2.67;1.38;;;28.70;93.90;;;;;;5060434;28;20048;-76
2022/06/23 12:15:38;;;;;;;4.22;1.42;;;28.80;93.00;;;;;;5055118;28;20044;-78
2022/06/23 12:18:19;;;;;;;2.63;1.15;;;29.00;91.80;;;;;;5089360;28;20059;-79
2022/06/23 12:20:55;;;;;;;4.50;1.42;;;29.10;91.60;;;;;;5087572;28;20131;-76
2022/06/23 12:23:29;;;;;;;2.08;1.42;;;29.20;91.40;;;;;;5066784;28;20051;-76
2022/06/23 12:26:12;;;;;;;5.30;1.40;;;29.30;90.60;;;;;;5086929;28;20352;-76
2022/06/23 12:28:49;;;;;;;3.22;1.20;;;29.30;90.20;;;;;;5085723;28;20039;-76
2022/06/23 12:31:36;;;;;;;3.88;1.33;;;29.30;87.00;;;;;;5070192;28;20040;-75
2022/06/23 12:34:44;;;;;;;4.82;1.05;;;29.40;86.00;;;;;;5087898;28;20040;-75
2022/06/23 12:37:25;;;;;;;1.60;1.00;;;29.50;85.10;;;;;;5078950;28;20092;-75
2022/06/23 12:40:02;;;;;;;7.22;1.50;;;29.60;86.30;;;;;;5086083;28;20028;-75
2022/06/23 12:42:38;;;;;;;3.13;0.90;;;29.80;83.40;;;;;;5054447;28;20051;-75
2022/06/23 12:45:33;;;;;;;2.25;1.42;;;29.90;83.80;;;;;;5088437;28;20097;-75
2022/06/23 12:48:25;;;;;;;2.70;1.17;;;30.00;81.90;;;;;;5053927;28;20040;-75
2022/06/23 12:51:05;;;;;;;4.90;1.20;;;30.10;82.70;;;;;;5084932;28;20053;-75
2022/06/23 12:54:02;;;;;;;3.53;1.05;;;30.10;82.40;;;;;;5065346;28;20467;-77
2022/06/23 12:56:34;;;;;;;1.88;0.93;;;30.10;80.70;;;;;;5086142;28;20114;-75
2022/06/23 12:59:09;;;;;;;2.55;1.17;;;30.20;80.60;;;;;;5053629;28;20075;-76
2022/06/23 13:02:04;;;;;;;1.25;0.80;;;30.10;79.50;;;;;;5085368;28;20412;-75
2022/06/23 13:04:42;;;;;;;1.27;0.88;;;30.20;79.00;;;;;;5070638;28;20467;-75
2022/06/23 13:07:33;;;;;;;1.75;1.15;;;30.30;80.00;;;;;;5065918;28;20040;-76
2022/06/23 13:10:36;;;;;;;2.65;1.02;;;30.40;78.10;;;;;;5067839;28;20069;-76
2022/06/23 13:13:22;;;;;;;3.38;0.90;;;30.50;78.50;;;;;;5084384;28;20395;-77
2022/06/23 13:15:59;;;;;;;1.77;1.00;;;30.80;79.30;;;;;;5052980;28;20044;-76
2022/06/23 13:18:31;;;;;;;6.18;1.15;;;30.80;76.70;;;;;;5071357;28;20043;-76
2022/06/23 13:21:08;;;;;;;6.93;1.17;;;30.90;76.00;;;;;;5068866;28;20051;-76
2022/06/23 13:23:38;;;;;;;4.00;0.70;;;30.90;74.50;;;;;;5059358;28;20176;-76
2022/06/23 13:26:24;;;;;;;1.52;0.98;;;30.90;73.40;;;;;;5040091;28;20047;-76
2022/06/23 13:29:08;;;;;;;4.03;1.20;;;31.00;73.50;;;;;;5045896;28;20048;-75
2022/06/23 13:31:43;;;;;;;2.40;1.02;;;31.00;74.20;;;;;;5037215;28;20432;-76
2022/06/23 13:34:28;;;;;;;6.10;0.98;;;31.10;73.80;;;;;;5033589;28;20049;-76
2022/06/23 13:37:01;;;;;;;3.90;0.90;;;31.10;72.10;;;;;;5030055;28;20033;-76
2022/06/23 13:39:45;;;;;;;4.85;1.10;;;31.20;71.30;;;;;;5045176;28;20075;-75
2022/06/23 13:42:20;;;;;;;5.05;0.98;;;31.20;72.00;;;;;;5049548;28;20049;-75
2022/06/23 13:45:19;;;;;;;2.13;1.13;;;31.30;69.60;;;;;;5028258;28;20033;-76
2022/06/23 13:47:59;;;;;;;2.25;1.00;;;31.40;70.30;;;;;;5007390;28;20128;-75
2022/06/23 13:50:50;;;;;;;1.17;1.02;;;31.40;71.90;;;;;;5043834;28;20492;-76
2022/06/23 13:53:46;;;;;;;3.97;0.95;;;31.50;70.20;;;;;;5039638;28;20080;-76
2022/06/23 13:56:24;;;;;;;3.33;1.00;;;31.60;69.30;;;;;;5031514;28;20448;-76
2022/06/23 13:59:17;;;;;;;2.67;1.10;;;31.60;70.20;;;;;;5051185;28;20037;-77